sensor_id;sensor_type;location;lat;lon;timestamp;pressure;altitude;pressure_sealevel;temperature;humidity
51986;BME280;38002;53.296;6.600;2024-02-16T00:00:58;101166.75;;;10.82;100.00
51986;BME280;38002;53.296;6.600;2024-02-16T10:33:30;101104.31;;;12.42;100.00
51986;BME280;38002;53.296;6.600;2024-02-16T12:54:26;101387.75;;;10.94;100.00
51986;BME280;38002;53.296;6.600;2024-02-16T12:59:34;101364.38;;;10.74;100.00
51986;BME280;38002;53.296;6.600;2024-02-16T13:05:09;101379.97;;;10.72;100.00
51986;BME280;38002;53.296;6.600;2024-02-16T13:10:14;101397.28;;;10.71;100.00
51986;BME280;38002;53.296;6.600;2024-02-16T13:20:40;101427.84;;;10.65;100.00
51986;BME280;38002;53.296;6.600;2024-02-16T13:31:09;101441.69;;;10.62;100.00
51986;BME280;38002;53.296;6.600;2024-02-16T13:54:00;101469.94;;;10.51;100.00
51986;BME280;38002;53.296;6.600;2024-02-16T14:10:14;101504.13;;;10.54;100.00
51986;BME280;38002;53.296;6.600;2024-02-16T14:53:51;101593.13;;;10.71;100.00
51986;BME280;38002;53.296;6.600;2024-02-16T15:04:30;101593.59;;;10.57;100.00
51986;BME280;38002;53.296;6.600;2024-02-16T15:09:31;101598.00;;;10.58;100.00
51986;BME280;38002;53.296;6.600;2024-02-16T15:14:33;101600.91;;;10.56;100.00
51986;BME280;38002;53.296;6.600;2024-02-16T15:19:55;101614.34;;;10.58;100.00
51986;BME280;38002;53.296;6.600;2024-02-16T15:24:58;101636.66;;;10.71;100.00
51986;BME280;38002;53.296;6.600;2024-02-16T15:30:24;101636.81;;;10.69;100.00
51986;BME280;38002;53.296;6.600;2024-02-16T15:35:44;101657.84;;;10.77;100.00
51986;BME280;38002;53.296;6.600;2024-02-16T15:40:55;101643.69;;;10.64;100.00
51986;BME280;38002;53.296;6.600;2024-02-16T15:46:18;101649.81;;;10.66;100.00
51986;BME280;38002;53.296;6.600;2024-02-16T15:51:19;101684.63;;;10.72;100.00
51986;BME280;38002;53.296;6.600;2024-02-16T15:56:19;101693.50;;;10.64;100.00
51986;BME280;38002;53.296;6.600;2024-02-16T16:01:25;101692.06;;;10.51;100.00
51986;BME280;38002;53.296;6.600;2024-02-16T16:06:26;101711.38;;;10.57;100.00
51986;BME280;38002;53.296;6.600;2024-02-16T16:11:29;101734.00;;;10.58;100.00
51986;BME280;38002;53.296;6.600;2024-02-16T16:16:31;101727.84;;;10.46;100.00
51986;BME280;38002;53.296;6.600;2024-02-16T16:21:32;101719.63;;;10.27;100.00
51986;BME280;38002;53.296;6.600;2024-02-16T16:26:33;101747.00;;;10.35;100.00
51986;BME280;38002;53.296;6.600;2024-02-16T16:31:34;101747.81;;;10.26;100.00
51986;BME280;38002;53.296;6.600;2024-02-16T16:36:34;101757.97;;;10.24;100.00
51986;BME280;38002;53.296;6.600;2024-02-16T16:41:35;101775.25;;;10.23;100.00
51986;BME280;38002;53.296;6.600;2024-02-16T16:46:35;101788.56;;;10.16;100.00
51986;BME280;38002;53.296;6.600;2024-02-16T16:51:38;101786.69;;;10.17;100.00
51986;BME280;38002;53.296;6.600;2024-02-16T16:56:38;101798.56;;;10.16;100.00
51986;BME280;38002;53.296;6.600;2024-02-16T17:01:39;101800.53;;;10.14;100.00
51986;BME280;38002;53.296;6.600;2024-02-16T17:06:39;101807.56;;;10.16;100.00
51986;BME280;38002;53.296;6.600;2024-02-16T17:11:40;101817.59;;;10.16;100.00
51986;BME280;38002;53.296;6.600;2024-02-16T17:16:45;101824.75;;;10.17;100.00
51986;BME280;38002;53.296;6.600;2024-02-16T17:21:48;101832.75;;;10.18;100.00
51986;BME280;38002;53.296;6.600;2024-02-16T17:26:50;101846.94;;;10.22;100.00
51986;BME280;38002;53.296;6.600;2024-02-16T17:31:52;101824.66;;;10.07;100.00
51986;BME280;38002;53.296;6.600;2024-02-16T17:36:52;101832.94;;;10.06;100.00
51986;BME280;38002;53.296;6.600;2024-02-16T17:41:53;101838.84;;;10.11;100.00
51986;BME280;38002;53.296;6.600;2024-02-16T17:46:54;101878.16;;;10.27;100.00
51986;BME280;38002;53.296;6.600;2024-02-16T17:51:54;101855.00;;;10.12;100.00
51986;BME280;38002;53.296;6.600;2024-02-16T17:56:58;101884.72;;;10.25;100.00
51986;BME280;38002;53.296;6.600;2024-02-16T18:02:01;101874.31;;;10.09;100.00
51986;BME280;38002;53.296;6.600;2024-02-16T18:07:12;101912.78;;;10.25;100.00
51986;BME280;38002;53.296;6.600;2024-02-16T18:12:14;101913.66;;;10.15;100.00
51986;BME280;38002;53.296;6.600;2024-02-16T18:17:15;101926.19;;;10.17;100.00
51986;BME280;38002;53.296;6.600;2024-02-16T18:22:16;101943.34;;;10.18;100.00
51986;BME280;38002;53.296;6.600;2024-02-16T18:27:17;101933.25;;;10.09;100.00
51986;BME280;38002;53.296;6.600;2024-02-16T18:32:17;101953.56;;;10.14;100.00
51986;BME280;38002;53.296;6.600;2024-02-16T18:37:18;101956.09;;;10.06;100.00
51986;BME280;38002;53.296;6.600;2024-02-16T18:42:18;101979.16;;;10.12;100.00
51986;BME280;38002;53.296;6.600;2024-02-16T18:47:19;101987.81;;;10.06;100.00
51986;BME280;38002;53.296;6.600;2024-02-16T18:52:19;102000.69;;;10.03;100.00
51986;BME280;38002;53.296;6.600;2024-02-16T18:57:20;102019.25;;;9.98;100.00
51986;BME280;38002;53.296;6.600;2024-02-16T19:02:20;102031.25;;;9.96;100.00
51986;BME280;38002;53.296;6.600;2024-02-16T19:07:21;102037.78;;;9.93;100.00
51986;BME280;38002;53.296;6.600;2024-02-16T19:12:22;102047.34;;;9.88;100.00
51986;BME280;38002;53.296;6.600;2024-02-16T19:17:23;102046.84;;;9.83;100.00
51986;BME280;38002;53.296;6.600;2024-02-16T19:22:24;102060.56;;;9.81;100.00
51986;BME280;38002;53.296;6.600;2024-02-16T19:27:24;102064.25;;;9.80;100.00
51986;BME280;38002;53.296;6.600;2024-02-16T19:32:26;102059.34;;;9.74;100.00
51986;BME280;38002;53.296;6.600;2024-02-16T19:37:27;102068.97;;;9.67;100.00
51986;BME280;38002;53.296;6.600;2024-02-16T19:42:28;102080.59;;;9.69;100.00
51986;BME280;38002;53.296;6.600;2024-02-16T19:47:29;102082.94;;;9.63;100.00
51986;BME280;38002;53.296;6.600;2024-02-16T19:52:30;102069.38;;;9.51;100.00
51986;BME280;38002;53.296;6.600;2024-02-16T19:57:31;102091.13;;;9.51;100.00
51986;BME280;38002;53.296;6.600;2024-02-16T20:02:32;102089.50;;;9.38;100.00
51986;BME280;38002;53.296;6.600;2024-02-16T20:08:04;102094.81;;;9.28;100.00
51986;BME280;38002;53.296;6.600;2024-02-16T20:13:05;102119.75;;;9.22;100.00
51986;BME280;38002;53.296;6.600;2024-02-16T20:18:05;102123.31;;;9.11;100.00
51986;BME280;38002;53.296;6.600;2024-02-16T20:23:06;102138.72;;;9.00;100.00
51986;BME280;38002;53.296;6.600;2024-02-16T20:28:06;102156.56;;;8.91;100.00
51986;BME280;38002;53.296;6.600;2024-02-16T20:33:07;102164.22;;;8.86;100.00
51986;BME280;38002;53.296;6.600;2024-02-16T20:38:08;102155.44;;;8.83;100.00
51986;BME280;38002;53.296;6.600;2024-02-16T20:43:09;102176.53;;;8.79;100.00
51986;BME280;38002;53.296;6.600;2024-02-16T20:48:09;102169.97;;;8.71;100.00
51986;BME280;38002;53.296;6.600;2024-02-16T20:53:12;102172.41;;;8.62;100.00
51986;BME280;38002;53.296;6.600;2024-02-16T20:58:31;102170.13;;;8.45;100.00
51986;BME280;38002;53.296;6.600;2024-02-16T21:03:40;102204.47;;;8.45;100.00
51986;BME280;38002;53.296;6.600;2024-02-16T21:08:41;102217.28;;;8.43;100.00
51986;BME280;38002;53.296;6.600;2024-02-16T21:13:46;102217.28;;;8.43;100.00
51986;BME280;38002;53.296;6.600;2024-02-16T21:18:46;102218.94;;;8.33;100.00
51986;BME280;38002;53.296;6.600;2024-02-16T21:23:48;102236.72;;;8.37;100.00
51986;BME280;38002;53.296;6.600;2024-02-16T21:28:51;102211.81;;;8.19;100.00
51986;BME280;38002;53.296;6.600;2024-02-16T21:34:03;102224.69;;;8.15;100.00
51986;BME280;38002;53.296;6.600;2024-02-16T21:39:08;102229.81;;;8.07;100.00
51986;BME280;38002;53.296;6.600;2024-02-16T21:44:09;102249.22;;;8.14;100.00
51986;BME280;38002;53.296;6.600;2024-02-16T21:49:09;102248.91;;;8.06;100.00
51986;BME280;38002;53.296;6.600;2024-02-16T21:54:10;102276.66;;;8.09;100.00
51986;BME280;38002;53.296;6.600;2024-02-16T21:59:12;102281.19;;;8.09;100.00
51986;BME280;38002;53.296;6.600;2024-02-16T22:04:16;102275.56;;;7.99;100.00
51986;BME280;38002;53.296;6.600;2024-02-16T22:09:23;102278.91;;;8.03;100.00
51986;BME280;38002;53.296;6.600;2024-02-16T22:14:23;102306.34;;;8.11;100.00
51986;BME280;38002;53.296;6.600;2024-02-16T22:19:34;102297.34;;;8.10;100.00
51986;BME280;38002;53.296;6.600;2024-02-16T22:24:53;102312.16;;;8.17;100.00
51986;BME280;38002;53.296;6.600;2024-02-16T22:29:53;102302.63;;;8.12;100.00
51986;BME280;38002;53.296;6.600;2024-02-16T22:34:54;102301.91;;;8.10;100.00
51986;BME280;38002;53.296;6.600;2024-02-16T22:39:54;102322.13;;;8.17;100.00
51986;BME280;38002;53.296;6.600;2024-02-16T22:44:55;102326.81;;;8.15;100.00
51986;BME280;38002;53.296;6.600;2024-02-16T22:55:45;102357.91;;;8.22;100.00
51986;BME280;38002;53.296;6.600;2024-02-16T23:00:47;102348.81;;;8.23;100.00
51986;BME280;38002;53.296;6.600;2024-02-16T23:05:50;102351.41;;;8.12;100.00
51986;BME280;38002;53.296;6.600;2024-02-16T23:10:52;102346.31;;;8.07;100.00
51986;BME280;38002;53.296;6.600;2024-02-16T23:15:53;102378.16;;;8.16;100.00
51986;BME280;38002;53.296;6.600;2024-02-16T23:20:53;102375.69;;;8.13;100.00
51986;BME280;38002;53.296;6.600;2024-02-16T23:25:54;102381.97;;;8.14;100.00
51986;BME280;38002;53.296;6.600;2024-02-16T23:30:54;102397.34;;;8.13;100.00
51986;BME280;38002;53.296;6.600;2024-02-16T23:35:55;102407.22;;;8.14;100.00
51986;BME280;38002;53.296;6.600;2024-02-16T23:40:55;102413.38;;;8.16;100.00
51986;BME280;38002;53.296;6.600;2024-02-16T23:45:57;102402.69;;;8.15;100.00
51986;BME280;38002;53.296;6.600;2024-02-16T23:51:01;102414.72;;;8.11;100.00
51986;BME280;38002;53.296;6.600;2024-02-16T23:56:01;102434.31;;;8.14;100.00
